sensor_id;sensor_type;location;lat;lon;timestamp;P1;durP1;ratioP1;P2;durP2;ratioP2
21564;SDS011;10943;48.738;9.320;2022-11-22T00:01:03;14.18;;;6.40;;
21564;SDS011;10943;48.738;9.320;2022-11-22T00:03:31;13.60;;;6.63;;
21564;SDS011;10943;48.738;9.320;2022-11-22T00:05:58;12.57;;;6.85;;
21564;SDS011;10943;48.738;9.320;2022-11-22T00:08:25;14.32;;;6.80;;
21564;SDS011;10943;48.738;9.320;2022-11-22T00:10:54;14.98;;;7.28;;
21564;SDS011;10943;48.738;9.320;2022-11-22T00:13:21;15.68;;;6.65;;
21564;SDS011;10943;48.738;9.320;2022-11-22T00:16:01;13.30;;;7.03;;
21564;SDS011;10943;48.738;9.320;2022-11-22T00:18:30;14.90;;;6.72;;
21564;SDS011;10943;48.738;9.320;2022-11-22T00:21:02;16.02;;;6.35;;
21564;SDS011;10943;48.738;9.320;2022-11-22T00:23:34;15.80;;;6.72;;
21564;SDS011;10943;48.738;9.320;2022-11-22T00:26:01;16.90;;;8.63;;
21564;SDS011;10943;48.738;9.320;2022-11-22T00:28:29;15.63;;;7.75;;
21564;SDS011;10943;48.738;9.320;2022-11-22T00:30:56;16.25;;;8.82;;
21564;SDS011;10943;48.738;9.320;2022-11-22T00:33:23;17.42;;;8.30;;
21564;SDS011;10943;48.738;9.320;2022-11-22T00:35:50;14.32;;;7.13;;
21564;SDS011;10943;48.738;9.320;2022-11-22T00:38:17;15.85;;;9.15;;
21564;SDS011;10943;48.738;9.320;2022-11-22T00:40:45;16.33;;;7.82;;
21564;SDS011;10943;48.738;9.320;2022-11-22T00:43:12;17.00;;;8.15;;
21564;SDS011;10943;48.738;9.320;2022-11-22T00:45:39;15.57;;;8.85;;
21564;SDS011;10943;48.738;9.320;2022-11-22T00:48:07;16.73;;;8.73;;
21564;SDS011;10943;48.738;9.320;2022-11-22T00:50:34;16.70;;;8.18;;
21564;SDS011;10943;48.738;9.320;2022-11-22T00:53:08;16.45;;;8.27;;
21564;SDS011;10943;48.738;9.320;2022-11-22T00:55:35;15.80;;;8.02;;
21564;SDS011;10943;48.738;9.320;2022-11-22T00:58:02;14.98;;;7.78;;
21564;SDS011;10943;48.738;9.320;2022-11-22T01:00:30;14.80;;;7.35;;
21564;SDS011;10943;48.738;9.320;2022-11-22T01:02:57;18.55;;;8.65;;
21564;SDS011;10943;48.738;9.320;2022-11-22T01:05:24;15.23;;;7.50;;
21564;SDS011;10943;48.738;9.320;2022-11-22T01:07:52;13.32;;;7.00;;
21564;SDS011;10943;48.738;9.320;2022-11-22T01:10:19;15.98;;;8.18;;
21564;SDS011;10943;48.738;9.320;2022-11-22T01:12:47;17.38;;;7.97;;
21564;SDS011;10943;48.738;9.320;2022-11-22T01:15:14;16.10;;;8.50;;
21564;SDS011;10943;48.738;9.320;2022-11-22T01:17:42;16.35;;;7.85;;
21564;SDS011;10943;48.738;9.320;2022-11-22T01:20:09;16.92;;;7.47;;
21564;SDS011;10943;48.738;9.320;2022-11-22T01:22:38;13.13;;;7.10;;
21564;SDS011;10943;48.738;9.320;2022-11-22T01:25:06;16.65;;;7.30;;
21564;SDS011;10943;48.738;9.320;2022-11-22T01:27:34;15.75;;;7.38;;
21564;SDS011;10943;48.738;9.320;2022-11-22T01:30:01;15.75;;;7.32;;
21564;SDS011;10943;48.738;9.320;2022-11-22T01:32:30;17.17;;;7.97;;
21564;SDS011;10943;48.738;9.320;2022-11-22T01:34:57;15.88;;;7.30;;
21564;SDS011;10943;48.738;9.320;2022-11-22T01:37:25;13.60;;;7.07;;
21564;SDS011;10943;48.738;9.320;2022-11-22T01:39:52;14.82;;;7.05;;
21564;SDS011;10943;48.738;9.320;2022-11-22T01:42:19;14.88;;;7.05;;
21564;SDS011;10943;48.738;9.320;2022-11-22T01:44:46;12.50;;;6.90;;
21564;SDS011;10943;48.738;9.320;2022-11-22T01:47:19;16.20;;;7.75;;
21564;SDS011;10943;48.738;9.320;2022-11-22T01:49:52;11.77;;;7.22;;
21564;SDS011;10943;48.738;9.320;2022-11-22T01:52:27;15.68;;;7.30;;
21564;SDS011;10943;48.738;9.320;2022-11-22T01:55:04;15.50;;;7.45;;
21564;SDS011;10943;48.738;9.320;2022-11-22T01:57:37;15.18;;;7.45;;
21564;SDS011;10943;48.738;9.320;2022-11-22T02:00:09;15.75;;;7.47;;
21564;SDS011;10943;48.738;9.320;2022-11-22T02:02:50;13.38;;;7.15;;
21564;SDS011;10943;48.738;9.320;2022-11-22T02:05:26;15.77;;;6.90;;
21564;SDS011;10943;48.738;9.320;2022-11-22T02:08:18;14.25;;;6.90;;
21564;SDS011;10943;48.738;9.320;2022-11-22T02:11:25;13.15;;;6.90;;
21564;SDS011;10943;48.738;9.320;2022-11-22T02:13:59;13.45;;;7.10;;
21564;SDS011;10943;48.738;9.320;2022-11-22T02:16:29;15.80;;;7.20;;
21564;SDS011;10943;48.738;9.320;2022-11-22T02:18:57;15.07;;;6.68;;
21564;SDS011;10943;48.738;9.320;2022-11-22T02:21:24;12.55;;;6.53;;
21564;SDS011;10943;48.738;9.320;2022-11-22T02:26:36;11.15;;;6.43;;
21564;SDS011;10943;48.738;9.320;2022-11-22T02:29:04;12.85;;;6.18;;
21564;SDS011;10943;48.738;9.320;2022-11-22T02:31:41;10.82;;;6.05;;
21564;SDS011;10943;48.738;9.320;2022-11-22T02:34:12;10.40;;;5.60;;
21564;SDS011;10943;48.738;9.320;2022-11-22T02:36:41;12.15;;;6.25;;
21564;SDS011;10943;48.738;9.320;2022-11-22T02:39:17;9.88;;;5.70;;
21564;SDS011;10943;48.738;9.320;2022-11-22T02:41:54;10.52;;;5.53;;
21564;SDS011;10943;48.738;9.320;2022-11-22T02:44:22;8.38;;;4.80;;
21564;SDS011;10943;48.738;9.320;2022-11-22T02:46:52;9.73;;;4.80;;
21564;SDS011;10943;48.738;9.320;2022-11-22T02:49:22;12.15;;;4.53;;
21564;SDS011;10943;48.738;9.320;2022-11-22T02:51:51;8.85;;;3.67;;
21564;SDS011;10943;48.738;9.320;2022-11-22T02:54:19;9.45;;;4.20;;
21564;SDS011;10943;48.738;9.320;2022-11-22T02:56:47;10.35;;;4.60;;
21564;SDS011;10943;48.738;9.320;2022-11-22T02:59:14;9.25;;;3.80;;
21564;SDS011;10943;48.738;9.320;2022-11-22T03:01:42;8.70;;;3.53;;
21564;SDS011;10943;48.738;9.320;2022-11-22T03:04:13;9.38;;;4.68;;
21564;SDS011;10943;48.738;9.320;2022-11-22T03:06:51;7.00;;;3.92;;
21564;SDS011;10943;48.738;9.320;2022-11-22T03:09:25;11.18;;;5.20;;
21564;SDS011;10943;48.738;9.320;2022-11-22T03:11:53;13.23;;;5.78;;
21564;SDS011;10943;48.738;9.320;2022-11-22T03:14:21;12.93;;;5.72;;
21564;SDS011;10943;48.738;9.320;2022-11-22T03:16:48;9.20;;;4.78;;
21564;SDS011;10943;48.738;9.320;2022-11-22T03:19:17;9.25;;;5.38;;
21564;SDS011;10943;48.738;9.320;2022-11-22T03:21:45;10.35;;;4.88;;
21564;SDS011;10943;48.738;9.320;2022-11-22T03:24:13;12.77;;;5.15;;
21564;SDS011;10943;48.738;9.320;2022-11-22T03:26:40;11.95;;;4.72;;
21564;SDS011;10943;48.738;9.320;2022-11-22T03:29:15;10.43;;;4.13;;
21564;SDS011;10943;48.738;9.320;2022-11-22T03:31:43;9.88;;;4.68;;
21564;SDS011;10943;48.738;9.320;2022-11-22T03:34:11;7.22;;;3.88;;
21564;SDS011;10943;48.738;9.320;2022-11-22T03:36:39;10.00;;;4.85;;
21564;SDS011;10943;48.738;9.320;2022-11-22T03:39:06;8.52;;;3.95;;
21564;SDS011;10943;48.738;9.320;2022-11-22T03:41:34;7.38;;;3.45;;
21564;SDS011;10943;48.738;9.320;2022-11-22T03:44:01;10.15;;;4.00;;
21564;SDS011;10943;48.738;9.320;2022-11-22T03:46:29;7.43;;;3.70;;
21564;SDS011;10943;48.738;9.320;2022-11-22T03:48:57;7.38;;;3.78;;
21564;SDS011;10943;48.738;9.320;2022-11-22T03:51:25;5.82;;;3.45;;
21564;SDS011;10943;48.738;9.320;2022-11-22T03:53:53;7.57;;;3.53;;
21564;SDS011;10943;48.738;9.320;2022-11-22T03:56:20;8.20;;;2.92;;
21564;SDS011;10943;48.738;9.320;2022-11-22T03:58:48;8.68;;;3.03;;
21564;SDS011;10943;48.738;9.320;2022-11-22T04:01:16;8.52;;;3.42;;
21564;SDS011;10943;48.738;9.320;2022-11-22T04:03:43;6.90;;;4.05;;
21564;SDS011;10943;48.738;9.320;2022-11-22T04:06:10;12.50;;;5.05;;
21564;SDS011;10943;48.738;9.320;2022-11-22T04:08:37;9.65;;;4.32;;
21564;SDS011;10943;48.738;9.320;2022-11-22T04:11:05;11.55;;;5.68;;
21564;SDS011;10943;48.738;9.320;2022-11-22T04:13:33;11.80;;;5.50;;
21564;SDS011;10943;48.738;9.320;2022-11-22T04:16:19;12.93;;;7.40;;
21564;SDS011;10943;48.738;9.320;2022-11-22T04:18:47;11.93;;;4.88;;
21564;SDS011;10943;48.738;9.320;2022-11-22T04:21:14;8.55;;;4.50;;
21564;SDS011;10943;48.738;9.320;2022-11-22T04:24:02;9.43;;;4.78;;
21564;SDS011;10943;48.738;9.320;2022-11-22T04:26:55;8.98;;;4.25;;
21564;SDS011;10943;48.738;9.320;2022-11-22T04:29:23;9.52;;;4.10;;
21564;SDS011;10943;48.738;9.320;2022-11-22T04:31:51;9.02;;;4.20;;
21564;SDS011;10943;48.738;9.320;2022-11-22T04:34:37;6.72;;;3.58;;
21564;SDS011;10943;48.738;9.320;2022-11-22T04:37:04;8.75;;;4.20;;
21564;SDS011;10943;48.738;9.320;2022-11-22T04:39:32;13.18;;;5.53;;
21564;SDS011;10943;48.738;9.320;2022-11-22T04:42:00;9.20;;;5.35;;
21564;SDS011;10943;48.738;9.320;2022-11-22T04:44:46;10.23;;;4.72;;
21564;SDS011;10943;48.738;9.320;2022-11-22T04:47:14;9.05;;;4.40;;
21564;SDS011;10943;48.738;9.320;2022-11-22T04:50:05;7.47;;;4.40;;
21564;SDS011;10943;48.738;9.320;2022-11-22T04:52:58;12.50;;;5.38;;
21564;SDS011;10943;48.738;9.320;2022-11-22T04:55:51;11.88;;;4.93;;
21564;SDS011;10943;48.738;9.320;2022-11-22T04:58:19;9.55;;;4.80;;
21564;SDS011;10943;48.738;9.320;2022-11-22T05:00:47;12.25;;;5.10;;
21564;SDS011;10943;48.738;9.320;2022-11-22T05:03:15;11.10;;;5.20;;
21564;SDS011;10943;48.738;9.320;2022-11-22T05:05:49;11.10;;;5.30;;
21564;SDS011;10943;48.738;9.320;2022-11-22T05:08:17;10.60;;;5.20;;
21564;SDS011;10943;48.738;9.320;2022-11-22T05:10:46;13.88;;;5.65;;
21564;SDS011;10943;48.738;9.320;2022-11-22T05:13:24;9.57;;;5.13;;
21564;SDS011;10943;48.738;9.320;2022-11-22T05:15:56;11.40;;;5.22;;
21564;SDS011;10943;48.738;9.320;2022-11-22T05:18:25;11.00;;;5.20;;
21564;SDS011;10943;48.738;9.320;2022-11-22T05:20:53;11.77;;;5.60;;
21564;SDS011;10943;48.738;9.320;2022-11-22T05:23:22;8.90;;;4.97;;
21564;SDS011;10943;48.738;9.320;2022-11-22T05:26:09;11.48;;;5.30;;
21564;SDS011;10943;48.738;9.320;2022-11-22T05:28:37;10.05;;;5.10;;
21564;SDS011;10943;48.738;9.320;2022-11-22T05:31:09;10.48;;;5.03;;
21564;SDS011;10943;48.738;9.320;2022-11-22T05:33:44;11.65;;;5.05;;
21564;SDS011;10943;48.738;9.320;2022-11-22T05:36:11;9.98;;;4.88;;
21564;SDS011;10943;48.738;9.320;2022-11-22T05:38:39;11.82;;;4.38;;
21564;SDS011;10943;48.738;9.320;2022-11-22T05:41:08;8.65;;;4.25;;
21564;SDS011;10943;48.738;9.320;2022-11-22T05:43:38;10.35;;;4.75;;
21564;SDS011;10943;48.738;9.320;2022-11-22T05:46:10;7.25;;;4.10;;
21564;SDS011;10943;48.738;9.320;2022-11-22T05:48:49;11.52;;;5.25;;
21564;SDS011;10943;48.738;9.320;2022-11-22T05:51:19;12.23;;;5.28;;
21564;SDS011;10943;48.738;9.320;2022-11-22T05:54:00;10.35;;;5.10;;
21564;SDS011;10943;48.738;9.320;2022-11-22T05:56:28;9.85;;;4.95;;
21564;SDS011;10943;48.738;9.320;2022-11-22T05:58:56;13.32;;;5.10;;
21564;SDS011;10943;48.738;9.320;2022-11-22T06:01:23;9.50;;;4.72;;
21564;SDS011;10943;48.738;9.320;2022-11-22T06:03:51;9.75;;;4.70;;
21564;SDS011;10943;48.738;9.320;2022-11-22T06:06:19;10.90;;;5.13;;
21564;SDS011;10943;48.738;9.320;2022-11-22T06:08:49;10.93;;;4.40;;
21564;SDS011;10943;48.738;9.320;2022-11-22T06:11:42;10.85;;;4.78;;
21564;SDS011;10943;48.738;9.320;2022-11-22T06:14:09;10.27;;;5.03;;
21564;SDS011;10943;48.738;9.320;2022-11-22T06:16:36;12.50;;;5.30;;
21564;SDS011;10943;48.738;9.320;2022-11-22T06:19:03;12.43;;;5.35;;
21564;SDS011;10943;48.738;9.320;2022-11-22T06:21:33;13.32;;;5.38;;
21564;SDS011;10943;48.738;9.320;2022-11-22T06:24:00;12.63;;;6.40;;
21564;SDS011;10943;48.738;9.320;2022-11-22T06:26:30;11.60;;;6.32;;
21564;SDS011;10943;48.738;9.320;2022-11-22T06:29:07;18.27;;;6.53;;
21564;SDS011;10943;48.738;9.320;2022-11-22T06:31:34;11.98;;;6.00;;
21564;SDS011;10943;48.738;9.320;2022-11-22T06:34:02;13.40;;;5.47;;
21564;SDS011;10943;48.738;9.320;2022-11-22T06:36:31;11.75;;;5.63;;
21564;SDS011;10943;48.738;9.320;2022-11-22T06:39:00;12.13;;;5.53;;
21564;SDS011;10943;48.738;9.320;2022-11-22T06:41:33;9.38;;;4.45;;
21564;SDS011;10943;48.738;9.320;2022-11-22T06:44:03;9.98;;;5.18;;
21564;SDS011;10943;48.738;9.320;2022-11-22T06:46:34;11.65;;;5.03;;
21564;SDS011;10943;48.738;9.320;2022-11-22T06:49:02;11.30;;;5.20;;
21564;SDS011;10943;48.738;9.320;2022-11-22T06:51:30;14.18;;;5.72;;
21564;SDS011;10943;48.738;9.320;2022-11-22T06:53:59;10.52;;;5.47;;
21564;SDS011;10943;48.738;9.320;2022-11-22T06:56:27;19.08;;;6.47;;
21564;SDS011;10943;48.738;9.320;2022-11-22T06:59:01;12.98;;;6.03;;
21564;SDS011;10943;48.738;9.320;2022-11-22T07:01:31;13.30;;;6.35;;
21564;SDS011;10943;48.738;9.320;2022-11-22T07:04:00;11.60;;;5.65;;
21564;SDS011;10943;48.738;9.320;2022-11-22T07:06:31;15.23;;;6.30;;
21564;SDS011;10943;48.738;9.320;2022-11-22T07:09:04;15.55;;;5.95;;
21564;SDS011;10943;48.738;9.320;2022-11-22T07:11:35;11.20;;;5.50;;
21564;SDS011;10943;48.738;9.320;2022-11-22T07:14:05;15.57;;;5.88;;
21564;SDS011;10943;48.738;9.320;2022-11-22T07:16:35;11.55;;;5.50;;
21564;SDS011;10943;48.738;9.320;2022-11-22T07:19:04;13.18;;;5.68;;
21564;SDS011;10943;48.738;9.320;2022-11-22T07:21:33;9.00;;;5.47;;
21564;SDS011;10943;48.738;9.320;2022-11-22T07:24:03;8.90;;;5.32;;
21564;SDS011;10943;48.738;9.320;2022-11-22T07:26:32;10.00;;;5.40;;
21564;SDS011;10943;48.738;9.320;2022-11-22T07:29:00;12.95;;;5.45;;
21564;SDS011;10943;48.738;9.320;2022-11-22T07:31:27;11.95;;;5.90;;
21564;SDS011;10943;48.738;9.320;2022-11-22T07:33:59;12.52;;;5.90;;
21564;SDS011;10943;48.738;9.320;2022-11-22T07:36:26;11.25;;;5.93;;
21564;SDS011;10943;48.738;9.320;2022-11-22T07:38:55;12.98;;;5.68;;
21564;SDS011;10943;48.738;9.320;2022-11-22T07:41:23;12.80;;;5.07;;
21564;SDS011;10943;48.738;9.320;2022-11-22T07:43:51;11.25;;;5.68;;
21564;SDS011;10943;48.738;9.320;2022-11-22T07:46:24;11.65;;;5.28;;
21564;SDS011;10943;48.738;9.320;2022-11-22T07:48:59;12.43;;;5.20;;
21564;SDS011;10943;48.738;9.320;2022-11-22T07:51:28;12.63;;;5.13;;
21564;SDS011;10943;48.738;9.320;2022-11-22T07:53:55;11.15;;;4.57;;
21564;SDS011;10943;48.738;9.320;2022-11-22T07:56:23;10.15;;;5.30;;
21564;SDS011;10943;48.738;9.320;2022-11-22T07:58:51;12.75;;;5.20;;
21564;SDS011;10943;48.738;9.320;2022-11-22T08:01:20;9.75;;;4.50;;
21564;SDS011;10943;48.738;9.320;2022-11-22T08:03:49;10.10;;;4.45;;
21564;SDS011;10943;48.738;9.320;2022-11-22T08:06:16;12.45;;;5.22;;
21564;SDS011;10943;48.738;9.320;2022-11-22T08:08:43;10.45;;;4.45;;
21564;SDS011;10943;48.738;9.320;2022-11-22T08:11:11;12.82;;;5.28;;
21564;SDS011;10943;48.738;9.320;2022-11-22T08:13:39;10.60;;;5.05;;
21564;SDS011;10943;48.738;9.320;2022-11-22T08:16:08;12.05;;;5.32;;
21564;SDS011;10943;48.738;9.320;2022-11-22T08:18:40;17.08;;;6.95;;
21564;SDS011;10943;48.738;9.320;2022-11-22T08:21:14;12.45;;;6.97;;
21564;SDS011;10943;48.738;9.320;2022-11-22T08:23:44;12.15;;;5.43;;
21564;SDS011;10943;48.738;9.320;2022-11-22T08:26:15;16.10;;;6.22;;
21564;SDS011;10943;48.738;9.320;2022-11-22T08:28:44;12.77;;;4.85;;
21564;SDS011;10943;48.738;9.320;2022-11-22T08:31:13;13.63;;;5.28;;
21564;SDS011;10943;48.738;9.320;2022-11-22T08:33:47;14.25;;;5.43;;
21564;SDS011;10943;48.738;9.320;2022-11-22T08:36:18;20.75;;;6.55;;
21564;SDS011;10943;48.738;9.320;2022-11-22T08:38:46;9.57;;;5.10;;
21564;SDS011;10943;48.738;9.320;2022-11-22T08:41:13;16.45;;;6.18;;
21564;SDS011;10943;48.738;9.320;2022-11-22T08:43:41;11.15;;;5.20;;
21564;SDS011;10943;48.738;9.320;2022-11-22T08:46:08;11.60;;;4.60;;
21564;SDS011;10943;48.738;9.320;2022-11-22T08:48:36;14.85;;;5.10;;
21564;SDS011;10943;48.738;9.320;2022-11-22T08:51:05;12.55;;;4.50;;
21564;SDS011;10943;48.738;9.320;2022-11-22T08:53:36;19.15;;;6.03;;
21564;SDS011;10943;48.738;9.320;2022-11-22T08:59:03;11.75;;;4.93;;
21564;SDS011;10943;48.738;9.320;2022-11-22T09:01:31;10.02;;;5.50;;
21564;SDS011;10943;48.738;9.320;2022-11-22T09:03:59;11.63;;;4.82;;
21564;SDS011;10943;48.738;9.320;2022-11-22T09:06:27;11.68;;;5.15;;
21564;SDS011;10943;48.738;9.320;2022-11-22T09:09:14;14.13;;;5.18;;
21564;SDS011;10943;48.738;9.320;2022-11-22T09:12:02;11.77;;;5.15;;
21564;SDS011;10943;48.738;9.320;2022-11-22T09:14:31;9.32;;;4.43;;
21564;SDS011;10943;48.738;9.320;2022-11-22T09:16:58;11.77;;;5.28;;
21564;SDS011;10943;48.738;9.320;2022-11-22T09:19:26;10.63;;;4.97;;
21564;SDS011;10943;48.738;9.320;2022-11-22T09:21:54;10.95;;;4.70;;
21564;SDS011;10943;48.738;9.320;2022-11-22T09:24:21;11.02;;;4.35;;
21564;SDS011;10943;48.738;9.320;2022-11-22T09:26:48;12.88;;;4.72;;
21564;SDS011;10943;48.738;9.320;2022-11-22T09:29:16;13.27;;;4.70;;
21564;SDS011;10943;48.738;9.320;2022-11-22T09:31:43;9.40;;;4.43;;
21564;SDS011;10943;48.738;9.320;2022-11-22T09:34:10;14.50;;;4.88;;
21564;SDS011;10943;48.738;9.320;2022-11-22T09:36:38;15.05;;;5.50;;
21564;SDS011;10943;48.738;9.320;2022-11-22T09:39:05;14.07;;;4.75;;
21564;SDS011;10943;48.738;9.320;2022-11-22T09:41:47;8.65;;;4.57;;
21564;SDS011;10943;48.738;9.320;2022-11-22T09:45:04;12.32;;;4.90;;
21564;SDS011;10943;48.738;9.320;2022-11-22T09:48:20;12.25;;;4.90;;
21564;SDS011;10943;48.738;9.320;2022-11-22T09:51:16;13.35;;;4.70;;
21564;SDS011;10943;48.738;9.320;2022-11-22T09:53:52;11.13;;;4.53;;
21564;SDS011;10943;48.738;9.320;2022-11-22T09:56:31;11.48;;;4.43;;
21564;SDS011;10943;48.738;9.320;2022-11-22T09:59:17;13.00;;;4.35;;
21564;SDS011;10943;48.738;9.320;2022-11-22T10:02:02;12.10;;;4.10;;
21564;SDS011;10943;48.738;9.320;2022-11-22T10:04:48;9.75;;;3.40;;
21564;SDS011;10943;48.738;9.320;2022-11-22T10:07:46;9.38;;;3.40;;
21564;SDS011;10943;48.738;9.320;2022-11-22T10:10:31;12.02;;;3.00;;
21564;SDS011;10943;48.738;9.320;2022-11-22T10:13:21;10.50;;;2.85;;
21564;SDS011;10943;48.738;9.320;2022-11-22T10:16:11;7.53;;;2.25;;
21564;SDS011;10943;48.738;9.320;2022-11-22T10:18:55;10.15;;;2.70;;
21564;SDS011;10943;48.738;9.320;2022-11-22T10:22:27;9.80;;;2.15;;
21564;SDS011;10943;48.738;9.320;2022-11-22T10:24:59;9.38;;;2.15;;
21564;SDS011;10943;48.738;9.320;2022-11-22T10:27:32;9.32;;;2.50;;
21564;SDS011;10943;48.738;9.320;2022-11-22T10:30:03;8.88;;;2.30;;
21564;SDS011;10943;48.738;9.320;2022-11-22T10:32:56;10.70;;;2.67;;
21564;SDS011;10943;48.738;9.320;2022-11-22T10:42:11;8.07;;;2.03;;
21564;SDS011;10943;48.738;9.320;2022-11-22T10:45:39;6.63;;;1.85;;
21564;SDS011;10943;48.738;9.320;2022-11-22T10:50:55;9.35;;;1.70;;
21564;SDS011;10943;48.738;9.320;2022-11-22T10:54:09;9.15;;;2.33;;
21564;SDS011;10943;48.738;9.320;2022-11-22T11:00:54;8.20;;;1.85;;
21564;SDS011;10943;48.738;9.320;2022-11-22T11:03:37;9.90;;;2.20;;
21564;SDS011;10943;48.738;9.320;2022-11-22T11:12:40;6.53;;;1.83;;
21564;SDS011;10943;48.738;9.320;2022-11-22T11:15:20;7.53;;;1.63;;
21564;SDS011;10943;48.738;9.320;2022-11-22T11:18:05;8.30;;;1.90;;
21564;SDS011;10943;48.738;9.320;2022-11-22T11:21:05;7.43;;;1.55;;
21564;SDS011;10943;48.738;9.320;2022-11-22T11:23:33;7.53;;;1.63;;
21564;SDS011;10943;48.738;9.320;2022-11-22T11:34:20;6.47;;;1.50;;
21564;SDS011;10943;48.738;9.320;2022-11-22T11:36:55;6.15;;;1.77;;
21564;SDS011;10943;48.738;9.320;2022-11-22T11:41:58;7.93;;;1.48;;
21564;SDS011;10943;48.738;9.320;2022-11-22T11:44:28;7.38;;;1.80;;
21564;SDS011;10943;48.738;9.320;2022-11-22T11:47:02;11.73;;;1.63;;
21564;SDS011;10943;48.738;9.320;2022-11-22T11:49:31;6.97;;;1.60;;
21564;SDS011;10943;48.738;9.320;2022-11-22T11:52:01;7.78;;;1.55;;
21564;SDS011;10943;48.738;9.320;2022-11-22T11:57:04;7.47;;;1.55;;
21564;SDS011;10943;48.738;9.320;2022-11-22T11:59:54;7.82;;;1.50;;
21564;SDS011;10943;48.738;9.320;2022-11-22T12:02:34;10.10;;;1.92;;
21564;SDS011;10943;48.738;9.320;2022-11-22T12:07:40;8.90;;;1.75;;
21564;SDS011;10943;48.738;9.320;2022-11-22T12:13:23;7.90;;;1.98;;
21564;SDS011;10943;48.738;9.320;2022-11-22T12:16:25;8.63;;;1.70;;
21564;SDS011;10943;48.738;9.320;2022-11-22T12:22:15;6.95;;;2.03;;
21564;SDS011;10943;48.738;9.320;2022-11-22T12:31:06;7.93;;;1.30;;
21564;SDS011;10943;48.738;9.320;2022-11-22T12:34:09;7.22;;;1.60;;
21564;SDS011;10943;48.738;9.320;2022-11-22T12:39:37;7.60;;;1.42;;
21564;SDS011;10943;48.738;9.320;2022-11-22T12:48:08;5.68;;;1.10;;
21564;SDS011;10943;48.738;9.320;2022-11-22T12:50:48;7.53;;;1.67;;
21564;SDS011;10943;48.738;9.320;2022-11-22T12:53:29;6.95;;;1.40;;
21564;SDS011;10943;48.738;9.320;2022-11-22T12:56:22;9.35;;;1.85;;
21564;SDS011;10943;48.738;9.320;2022-11-22T12:59:10;6.28;;;1.50;;
21564;SDS011;10943;48.738;9.320;2022-11-22T13:02:14;6.32;;;1.50;;
21564;SDS011;10943;48.738;9.320;2022-11-22T13:11:05;7.32;;;1.45;;
21564;SDS011;10943;48.738;9.320;2022-11-22T13:14:10;8.93;;;1.40;;
21564;SDS011;10943;48.738;9.320;2022-11-22T13:17:10;6.63;;;1.52;;
21564;SDS011;10943;48.738;9.320;2022-11-22T13:19:44;6.30;;;1.30;;
21564;SDS011;10943;48.738;9.320;2022-11-22T13:23:08;4.97;;;1.30;;
21564;SDS011;10943;48.738;9.320;2022-11-22T13:30:25;7.53;;;1.50;;
21564;SDS011;10943;48.738;9.320;2022-11-22T13:33:10;5.45;;;1.35;;
21564;SDS011;10943;48.738;9.320;2022-11-22T13:39:43;6.43;;;0.93;;
21564;SDS011;10943;48.738;9.320;2022-11-22T13:42:30;4.80;;;0.98;;
21564;SDS011;10943;48.738;9.320;2022-11-22T13:45:11;6.07;;;1.08;;
21564;SDS011;10943;48.738;9.320;2022-11-22T13:47:59;6.00;;;1.20;;
21564;SDS011;10943;48.738;9.320;2022-11-22T13:59:13;4.38;;;1.10;;
21564;SDS011;10943;48.738;9.320;2022-11-22T14:02:25;3.70;;;0.93;;
21564;SDS011;10943;48.738;9.320;2022-11-22T14:05:14;4.43;;;0.60;;
21564;SDS011;10943;48.738;9.320;2022-11-22T14:08:28;5.68;;;1.13;;
21564;SDS011;10943;48.738;9.320;2022-11-22T14:11:32;4.85;;;0.88;;
21564;SDS011;10943;48.738;9.320;2022-11-22T14:18:10;4.72;;;0.95;;
21564;SDS011;10943;48.738;9.320;2022-11-22T14:24:56;8.95;;;1.10;;
21564;SDS011;10943;48.738;9.320;2022-11-22T14:27:56;7.50;;;1.20;;
21564;SDS011;10943;48.738;9.320;2022-11-22T14:31:27;7.07;;;0.95;;
21564;SDS011;10943;48.738;9.320;2022-11-22T14:39:49;5.30;;;1.02;;
21564;SDS011;10943;48.738;9.320;2022-11-22T14:45:34;5.45;;;1.20;;
21564;SDS011;10943;48.738;9.320;2022-11-22T14:52:22;7.70;;;1.30;;
21564;SDS011;10943;48.738;9.320;2022-11-22T14:55:11;3.20;;;0.90;;
21564;SDS011;10943;48.738;9.320;2022-11-22T14:58:05;6.03;;;1.20;;
21564;SDS011;10943;48.738;9.320;2022-11-22T15:04:35;5.55;;;1.90;;
21564;SDS011;10943;48.738;9.320;2022-11-22T15:21:32;4.30;;;1.50;;
21564;SDS011;10943;48.738;9.320;2022-11-22T15:24:38;4.75;;;1.25;;
21564;SDS011;10943;48.738;9.320;2022-11-22T15:27:29;5.85;;;1.70;;
21564;SDS011;10943;48.738;9.320;2022-11-22T15:30:29;5.25;;;1.60;;
21564;SDS011;10943;48.738;9.320;2022-11-22T15:33:20;4.53;;;1.48;;
21564;SDS011;10943;48.738;9.320;2022-11-22T15:39:19;5.68;;;1.50;;
21564;SDS011;10943;48.738;9.320;2022-11-22T15:42:23;6.95;;;1.70;;
21564;SDS011;10943;48.738;9.320;2022-11-22T15:45:19;7.43;;;2.45;;
21564;SDS011;10943;48.738;9.320;2022-11-22T15:48:31;5.80;;;2.20;;
21564;SDS011;10943;48.738;9.320;2022-11-22T15:51:28;7.90;;;2.28;;
21564;SDS011;10943;48.738;9.320;2022-11-22T15:54:52;9.30;;;2.75;;
21564;SDS011;10943;48.738;9.320;2022-11-22T15:57:48;7.78;;;2.47;;
21564;SDS011;10943;48.738;9.320;2022-11-22T16:00:30;5.95;;;1.95;;
21564;SDS011;10943;48.738;9.320;2022-11-22T16:03:02;7.55;;;2.55;;
21564;SDS011;10943;48.738;9.320;2022-11-22T16:06:20;10.48;;;2.30;;
21564;SDS011;10943;48.738;9.320;2022-11-22T16:09:02;4.53;;;1.20;;
21564;SDS011;10943;48.738;9.320;2022-11-22T16:11:36;5.70;;;1.50;;
21564;SDS011;10943;48.738;9.320;2022-11-22T16:14:51;4.90;;;2.22;;
21564;SDS011;10943;48.738;9.320;2022-11-22T16:23:03;4.80;;;1.40;;
21564;SDS011;10943;48.738;9.320;2022-11-22T16:28:45;4.78;;;1.95;;
21564;SDS011;10943;48.738;9.320;2022-11-22T16:31:24;5.57;;;2.30;;
21564;SDS011;10943;48.738;9.320;2022-11-22T16:33:56;6.00;;;2.30;;
21564;SDS011;10943;48.738;9.320;2022-11-22T16:36:27;5.07;;;1.95;;
21564;SDS011;10943;48.738;9.320;2022-11-22T16:38:56;14.38;;;3.70;;
21564;SDS011;10943;48.738;9.320;2022-11-22T16:41:25;11.10;;;4.38;;
21564;SDS011;10943;48.738;9.320;2022-11-22T16:44:00;9.25;;;3.38;;
21564;SDS011;10943;48.738;9.320;2022-11-22T16:46:41;6.95;;;2.70;;
21564;SDS011;10943;48.738;9.320;2022-11-22T16:51:47;5.07;;;1.70;;
21564;SDS011;10943;48.738;9.320;2022-11-22T16:54:17;4.43;;;1.60;;
21564;SDS011;10943;48.738;9.320;2022-11-22T16:56:46;4.38;;;1.70;;
21564;SDS011;10943;48.738;9.320;2022-11-22T16:59:13;5.25;;;1.88;;
21564;SDS011;10943;48.738;9.320;2022-11-22T17:01:43;4.78;;;1.50;;
21564;SDS011;10943;48.738;9.320;2022-11-22T17:04:29;4.95;;;1.80;;
21564;SDS011;10943;48.738;9.320;2022-11-22T17:07:09;5.80;;;1.92;;
21564;SDS011;10943;48.738;9.320;2022-11-22T17:09:38;4.88;;;1.98;;
21564;SDS011;10943;48.738;9.320;2022-11-22T17:12:20;5.82;;;2.15;;
21564;SDS011;10943;48.738;9.320;2022-11-22T17:14:59;5.70;;;2.20;;
21564;SDS011;10943;48.738;9.320;2022-11-22T17:17:26;5.47;;;1.63;;
21564;SDS011;10943;48.738;9.320;2022-11-22T17:19:54;5.93;;;2.00;;
21564;SDS011;10943;48.738;9.320;2022-11-22T17:22:22;9.63;;;3.50;;
21564;SDS011;10943;48.738;9.320;2022-11-22T17:24:49;6.57;;;2.70;;
21564;SDS011;10943;48.738;9.320;2022-11-22T17:27:16;7.05;;;2.55;;
21564;SDS011;10943;48.738;9.320;2022-11-22T17:29:44;6.35;;;2.60;;
21564;SDS011;10943;48.738;9.320;2022-11-22T17:32:16;5.65;;;2.75;;
21564;SDS011;10943;48.738;9.320;2022-11-22T17:34:44;8.77;;;3.60;;
21564;SDS011;10943;48.738;9.320;2022-11-22T17:37:12;9.38;;;4.03;;
21564;SDS011;10943;48.738;9.320;2022-11-22T17:39:41;5.05;;;2.10;;
21564;SDS011;10943;48.738;9.320;2022-11-22T17:42:09;6.97;;;2.28;;
21564;SDS011;10943;48.738;9.320;2022-11-22T17:44:37;7.22;;;2.15;;
21564;SDS011;10943;48.738;9.320;2022-11-22T17:47:06;6.03;;;1.88;;
21564;SDS011;10943;48.738;9.320;2022-11-22T17:49:34;6.85;;;2.25;;